This is the latest recevied weather packets stored in our database for station/object IK2CIR-3. If no packets are shown the sender has not sent any weather packets the latest 10 day(s).
| Time | Temp. | Humidity | Pressure | Rain* | Wind** | Luminosity | Snow |
|---|---|---|---|---|---|---|---|
| 1778054373 | 16.67° C | 82% | 1008.2 hPa | - | - | - | - |
| 1778047173 | 15.56° C | 83% | 1008.4 hPa | - | - | - | - |
| 1778039972 | 14.44° C | 81% | 1009 hPa | - | - | - | - |
| 1778032772 | 13.89° C | 76% | 1010.4 hPa | - | - | - | - |
| 1778025572 | 13.89° C | 75% | 1011.2 hPa | - | - | - | - |
| 1778018372 | 13.89° C | 74% | 1011.4 hPa | - | - | - | - |
| 1778011172 | 14.44° C | 72% | 1012 hPa | - | - | - | - |
| 1778003971 | 17.22° C | 65% | 1011.5 hPa | - | - | - | - |
| 1777996771 | 20.56° C | 61% | 1011.2 hPa | - | - | - | - |
| 1777989571 | 21.67° C | 68% | 1011.5 hPa | - | - | - | - |
| 1777982370 | 16.67° C | 77% | 1012.2 hPa | - | - | - | - |
| 1777975170 | 16.11° C | 75% | 1012.7 hPa | - | - | - | - |
| 1777967969 | 14.44° C | 71% | 1012.8 hPa | - | - | - | - |
| 1777960769 | 17.22° C | 54% | 1012 hPa | - | - | - | - |
| 1777953569 | 16.67° C | 49% | 1011.9 hPa | - | - | - | - |
| 1777946369 | 16.11° C | 47% | 1012.4 hPa | - | - | - | - |
| 1777939169 | 16.11° C | 48% | 1013.7 hPa | - | - | - | - |
| 1777931968 | 17.78° C | 41% | 1014.1 hPa | - | - | - | - |
| 1777924768 | 20° C | 36% | 1014.4 hPa | - | - | - | - |
| 1777917567 | 25° C | 25% | 1013.7 hPa | - | - | - | - |
| 1777916172 | 26.11° C | 23% | 1013.7 hPa | - | - | - | - |
| 1777908968 | 29.44° C | 19% | 1014.1 hPa | - | - | - | - |
| 1777901764 | 32.22° C | 19% | 1014.7 hPa | - | - | - | - |
| 1777894560 | 29.44° C | 21% | 1016 hPa | - | - | - | - |
| 1777887357 | 29.44° C | 23% | 1016.5 hPa | - | - | - | - |
* Rain since midnight (hover to see other rain measurements)
** Current wind speed in m/s (hover to see current wind gust speed)